sensor_id;sensor_type;location;lat;lon;timestamp;pressure;altitude;pressure_sealevel;temperature;humidity
65190;BME280;51777;53.570;9.984;2023-05-12T00:01:34;101513.50;;;14.38;100.00
65190;BME280;51777;53.570;9.984;2023-05-12T00:04:00;101511.38;;;14.33;100.00
65190;BME280;51777;53.570;9.984;2023-05-12T00:06:25;101515.75;;;14.33;100.00
65190;BME280;51777;53.570;9.984;2023-05-12T00:08:51;101511.53;;;14.32;100.00
65190;BME280;51777;53.570;9.984;2023-05-12T00:11:16;101516.72;;;14.32;100.00
65190;BME280;51777;53.570;9.984;2023-05-12T00:13:42;101512.00;;;14.27;100.00
65190;BME280;51777;53.570;9.984;2023-05-12T00:16:08;101507.59;;;14.28;100.00
65190;BME280;51777;53.570;9.984;2023-05-12T00:18:34;101509.91;;;14.31;100.00
65190;BME280;51777;53.570;9.984;2023-05-12T00:20:59;101508.25;;;14.30;100.00
65190;BME280;51777;53.570;9.984;2023-05-12T00:23:25;101512.19;;;14.34;100.00
65190;BME280;51777;53.570;9.984;2023-05-12T00:25:50;101517.91;;;14.37;100.00
65190;BME280;51777;53.570;9.984;2023-05-12T00:28:17;101520.06;;;14.42;100.00
65190;BME280;51777;53.570;9.984;2023-05-12T00:30:43;101522.22;;;14.47;100.00
65190;BME280;51777;53.570;9.984;2023-05-12T00:33:08;101518.22;;;14.52;100.00
65190;BME280;51777;53.570;9.984;2023-05-12T00:35:34;101521.09;;;14.49;100.00
65190;BME280;51777;53.570;9.984;2023-05-12T00:37:59;101519.78;;;14.45;100.00
65190;BME280;51777;53.570;9.984;2023-05-12T00:40:24;101516.22;;;14.46;100.00
65190;BME280;51777;53.570;9.984;2023-05-12T00:42:50;101517.53;;;14.50;100.00
65190;BME280;51777;53.570;9.984;2023-05-12T00:45:15;101511.06;;;14.54;100.00
65190;BME280;51777;53.570;9.984;2023-05-12T00:47:41;101522.75;;;14.50;100.00
65190;BME280;51777;53.570;9.984;2023-05-12T00:50:06;101523.13;;;14.55;100.00
65190;BME280;51777;53.570;9.984;2023-05-12T00:52:32;101525.56;;;14.57;100.00
65190;BME280;51777;53.570;9.984;2023-05-12T00:54:59;101522.97;;;14.57;100.00
65190;BME280;51777;53.570;9.984;2023-05-12T00:57:25;101531.44;;;14.59;100.00
65190;BME280;51777;53.570;9.984;2023-05-12T00:59:52;101528.97;;;14.57;100.00
65190;BME280;51777;53.570;9.984;2023-05-12T01:02:18;101526.38;;;14.57;100.00
65190;BME280;51777;53.570;9.984;2023-05-12T01:04:44;101528.97;;;14.57;100.00
65190;BME280;51777;53.570;9.984;2023-05-12T01:07:16;101532.25;;;14.59;100.00
65190;BME280;51777;53.570;9.984;2023-05-12T01:09:42;101537.59;;;14.58;100.00
65190;BME280;51777;53.570;9.984;2023-05-12T01:12:07;101537.59;;;14.58;100.00
65190;BME280;51777;53.570;9.984;2023-05-12T01:14:32;101539.75;;;14.62;100.00
65190;BME280;51777;53.570;9.984;2023-05-12T01:17:00;101533.59;;;14.63;100.00
65190;BME280;51777;53.570;9.984;2023-05-12T01:22:14;101535.72;;;14.68;100.00
65190;BME280;51777;53.570;9.984;2023-05-12T01:24:54;101544.34;;;14.68;100.00
65190;BME280;51777;53.570;9.984;2023-05-12T01:27:22;101540.28;;;14.66;100.00
65190;BME280;51777;53.570;9.984;2023-05-12T01:29:50;101539.16;;;14.68;100.00
65190;BME280;51777;53.570;9.984;2023-05-12T01:32:17;101545.00;;;14.71;100.00
65190;BME280;51777;53.570;9.984;2023-05-12T01:34:42;101545.69;;;14.73;100.00
65190;BME280;51777;53.570;9.984;2023-05-12T01:37:08;101543.22;;;14.71;100.00
65190;BME280;51777;53.570;9.984;2023-05-12T01:39:35;101535.72;;;14.68;100.00
65190;BME280;51777;53.570;9.984;2023-05-12T01:42:01;101545.31;;;14.67;100.00
65190;BME280;51777;53.570;9.984;2023-05-12T01:44:26;101553.44;;;14.64;100.00
65190;BME280;51777;53.570;9.984;2023-05-12T01:46:52;101549.88;;;14.65;100.00
65190;BME280;51777;53.570;9.984;2023-05-12T01:49:17;101550.84;;;14.64;100.00
65190;BME280;51777;53.570;9.984;2023-05-12T01:51:43;101550.69;;;14.66;100.00
65190;BME280;51777;53.570;9.984;2023-05-12T01:54:08;101549.50;;;14.60;100.00
65190;BME280;51777;53.570;9.984;2023-05-12T01:56:33;101557.16;;;14.62;100.00
65190;BME280;51777;53.570;9.984;2023-05-12T01:58:59;101561.38;;;14.63;100.00
65190;BME280;51777;53.570;9.984;2023-05-12T02:01:24;101562.88;;;14.65;100.00
65190;BME280;51777;53.570;9.984;2023-05-12T02:03:53;101561.09;;;14.66;100.00
65190;BME280;51777;53.570;9.984;2023-05-12T02:06:19;101567.13;;;14.66;100.00
65190;BME280;51777;53.570;9.984;2023-05-12T02:08:45;101567.56;;;14.62;100.00
65190;BME280;51777;53.570;9.984;2023-05-12T02:11:10;101564.13;;;14.61;100.00
65190;BME280;51777;53.570;9.984;2023-05-12T02:13:36;101563.16;;;14.62;100.00
65190;BME280;51777;53.570;9.984;2023-05-12T02:16:01;101564.13;;;14.61;100.00
65190;BME280;51777;53.570;9.984;2023-05-12T02:18:27;101565.78;;;14.62;100.00
65190;BME280;51777;53.570;9.984;2023-05-12T02:20:52;101575.53;;;14.60;100.00
65190;BME280;51777;53.570;9.984;2023-05-12T02:23:18;101579.09;;;14.59;100.00
65190;BME280;51777;53.570;9.984;2023-05-12T02:25:43;101580.72;;;14.60;100.00
65190;BME280;51777;53.570;9.984;2023-05-12T02:28:08;101585.94;;;14.60;100.00
65190;BME280;51777;53.570;9.984;2023-05-12T02:30:36;101583.31;;;14.60;100.00
65190;BME280;51777;53.570;9.984;2023-05-12T02:33:02;101583.47;;;14.59;100.00
65190;BME280;51777;53.570;9.984;2023-05-12T02:35:30;101585.13;;;14.60;100.00
65190;BME280;51777;53.570;9.984;2023-05-12T02:37:55;101576.50;;;14.59;100.00
65190;BME280;51777;53.570;9.984;2023-05-12T02:40:21;101576.34;;;14.61;100.00
65190;BME280;51777;53.570;9.984;2023-05-12T02:42:46;101577.97;;;14.62;100.00
65190;BME280;51777;53.570;9.984;2023-05-12T02:45:11;101579.75;;;14.61;100.00
65190;BME280;51777;53.570;9.984;2023-05-12T02:47:37;101576.19;;;14.62;100.00
65190;BME280;51777;53.570;9.984;2023-05-12T02:50:02;101576.34;;;14.61;100.00
65190;BME280;51777;53.570;9.984;2023-05-12T02:52:28;101576.50;;;14.59;100.00
65190;BME280;51777;53.570;9.984;2023-05-12T02:54:53;101581.69;;;14.59;100.00
65190;BME280;51777;53.570;9.984;2023-05-12T02:57:20;101578.13;;;14.60;100.00
65190;BME280;51777;53.570;9.984;2023-05-12T02:59:45;101576.50;;;14.59;100.00
65190;BME280;51777;53.570;9.984;2023-05-12T03:02:11;101578.13;;;14.60;100.00
65190;BME280;51777;53.570;9.984;2023-05-12T03:04:36;101580.88;;;14.59;100.00
65190;BME280;51777;53.570;9.984;2023-05-12T03:07:02;101582.97;;;14.55;100.00
65190;BME280;51777;53.570;9.984;2023-05-12T03:09:27;101582.00;;;14.56;100.00
65190;BME280;51777;53.570;9.984;2023-05-12T03:11:53;101586.41;;;14.56;100.00
65190;BME280;51777;53.570;9.984;2023-05-12T03:14:18;101585.44;;;14.57;100.00
65190;BME280;51777;53.570;9.984;2023-05-12T03:16:43;101581.03;;;14.57;100.00
65190;BME280;51777;53.570;9.984;2023-05-12T03:19:11;101581.84;;;14.58;100.00
65190;BME280;51777;53.570;9.984;2023-05-12T03:21:37;101588.69;;;14.59;100.00
65190;BME280;51777;53.570;9.984;2023-05-12T03:24:02;101588.53;;;14.60;100.00
65190;BME280;51777;53.570;9.984;2023-05-12T03:26:28;101590.16;;;14.61;100.00
65190;BME280;51777;53.570;9.984;2023-05-12T03:28:53;101598.66;;;14.63;100.00
65190;BME280;51777;53.570;9.984;2023-05-12T03:31:19;101596.19;;;14.62;100.00
65190;BME280;51777;53.570;9.984;2023-05-12T03:33:45;101591.81;;;14.62;100.00
65190;BME280;51777;53.570;9.984;2023-05-12T03:36:10;101594.41;;;14.62;100.00
65190;BME280;51777;53.570;9.984;2023-05-12T03:38:35;101599.59;;;14.62;100.00
65190;BME280;51777;53.570;9.984;2023-05-12T03:41:05;101598.66;;;14.63;100.00
65190;BME280;51777;53.570;9.984;2023-05-12T03:43:30;101590.84;;;14.63;100.00
65190;BME280;51777;53.570;9.984;2023-05-12T03:45:56;101594.41;;;14.62;100.00
65190;BME280;51777;53.570;9.984;2023-05-12T03:48:22;101599.09;;;14.59;100.00
65190;BME280;51777;53.570;9.984;2023-05-12T03:50:47;101594.41;;;14.62;100.00
65190;BME280;51777;53.570;9.984;2023-05-12T03:53:13;101602.91;;;14.64;100.00
65190;BME280;51777;53.570;9.984;2023-05-12T03:55:38;101603.72;;;14.65;100.00
65190;BME280;51777;53.570;9.984;2023-05-12T03:58:03;101606.16;;;14.66;100.00
65190;BME280;51777;53.570;9.984;2023-05-12T04:00:29;101603.56;;;14.66;100.00
65190;BME280;51777;53.570;9.984;2023-05-12T04:02:54;101605.19;;;14.67;100.00
65190;BME280;51777;53.570;9.984;2023-05-12T04:05:20;101604.22;;;14.68;100.00
65190;BME280;51777;53.570;9.984;2023-05-12T04:07:45;101604.53;;;14.65;100.00
65190;BME280;51777;53.570;9.984;2023-05-12T04:10:10;101611.38;;;14.66;100.00
65190;BME280;51777;53.570;9.984;2023-05-12T04:12:36;101606.81;;;14.68;100.00
65190;BME280;51777;53.570;9.984;2023-05-12T04:15:01;101610.09;;;14.71;100.00
65190;BME280;51777;53.570;9.984;2023-05-12T04:17:26;101614.34;;;14.72;100.00
65190;BME280;51777;53.570;9.984;2023-05-12T04:19:52;101615.53;;;14.77;100.00
65190;BME280;51777;53.570;9.984;2023-05-12T04:22:17;101622.22;;;14.80;100.00
65190;BME280;51777;53.570;9.984;2023-05-12T04:24:43;101621.09;;;14.82;100.00
65190;BME280;51777;53.570;9.984;2023-05-12T04:27:08;101630.38;;;14.85;100.00
65190;BME280;51777;53.570;9.984;2023-05-12T04:29:34;101623.22;;;14.87;100.00
65190;BME280;51777;53.570;9.984;2023-05-12T04:31:59;101629.13;;;14.89;100.00
65190;BME280;51777;53.570;9.984;2023-05-12T04:34:25;101633.34;;;14.90;100.00
65190;BME280;51777;53.570;9.984;2023-05-12T04:36:50;101634.84;;;14.92;100.00
65190;BME280;51777;53.570;9.984;2023-05-12T04:39:15;101639.66;;;14.87;100.00
65190;BME280;51777;53.570;9.984;2023-05-12T04:41:41;101639.88;;;14.94;100.00
65190;BME280;51777;53.570;9.984;2023-05-12T04:44:06;101637.47;;;15.01;100.00
65190;BME280;51777;53.570;9.984;2023-05-12T04:46:32;101639.97;;;15.02;100.00
65190;BME280;51777;53.570;9.984;2023-05-12T04:48:57;101647.16;;;15.08;100.00
65190;BME280;51777;53.570;9.984;2023-05-12T04:51:22;101648.47;;;15.12;100.00
65190;BME280;51777;53.570;9.984;2023-05-12T04:53:48;101653.41;;;15.15;100.00
65190;BME280;51777;53.570;9.984;2023-05-12T04:56:13;101647.72;;;15.20;100.00
65190;BME280;51777;53.570;9.984;2023-05-12T04:58:38;101658.47;;;15.25;100.00
65190;BME280;51777;53.570;9.984;2023-05-12T05:01:04;101660.66;;;15.30;100.00
65190;BME280;51777;53.570;9.984;2023-05-12T05:03:30;101665.22;;;15.36;100.00
65190;BME280;51777;53.570;9.984;2023-05-12T05:05:55;101674.03;;;15.35;100.00
65190;BME280;51777;53.570;9.984;2023-05-12T05:08:21;101672.34;;;15.25;100.00
65190;BME280;51777;53.570;9.984;2023-05-12T05:10:46;101675.16;;;15.32;100.00
65190;BME280;51777;53.570;9.984;2023-05-12T05:13:11;101677.66;;;15.42;100.00
65190;BME280;51777;53.570;9.984;2023-05-12T05:15:37;101677.56;;;15.51;100.00
65190;BME280;51777;53.570;9.984;2023-05-12T05:18:02;101680.97;;;15.52;100.00
65190;BME280;51777;53.570;9.984;2023-05-12T05:20:29;101680.34;;;15.58;100.00
65190;BME280;51777;53.570;9.984;2023-05-12T05:22:57;101683.34;;;15.63;100.00
65190;BME280;51777;53.570;9.984;2023-05-12T05:25:22;101696.00;;;15.58;100.00
65190;BME280;51777;53.570;9.984;2023-05-12T05:27:48;101688.03;;;15.60;100.00
65190;BME280;51777;53.570;9.984;2023-05-12T05:30:14;101690.69;;;15.68;100.00
65190;BME280;51777;53.570;9.984;2023-05-12T05:32:40;101696.56;;;15.70;100.00
65190;BME280;51777;53.570;9.984;2023-05-12T05:35:06;101694.31;;;15.75;100.00
65190;BME280;51777;53.570;9.984;2023-05-12T05:37:32;101700.38;;;15.83;100.00
65190;BME280;51777;53.570;9.984;2023-05-12T05:39:57;101702.53;;;15.88;100.00
65190;BME280;51777;53.570;9.984;2023-05-12T05:42:23;101708.22;;;15.83;100.00
65190;BME280;51777;53.570;9.984;2023-05-12T05:44:48;101701.34;;;15.82;100.00
65190;BME280;51777;53.570;9.984;2023-05-12T05:47:13;101711.53;;;15.94;100.00
65190;BME280;51777;53.570;9.984;2023-05-12T05:49:39;101710.69;;;15.93;100.00
65190;BME280;51777;53.570;9.984;2023-05-12T05:52:04;101715.00;;;16.02;100.00
65190;BME280;51777;53.570;9.984;2023-05-12T05:54:29;101717.81;;;16.17;100.00
65190;BME280;51777;53.570;9.984;2023-05-12T05:56:55;101717.47;;;16.20;100.00
65190;BME280;51777;53.570;9.984;2023-05-12T05:59:20;101723.19;;;16.24;100.00
65190;BME280;51777;53.570;9.984;2023-05-12T06:01:45;101725.19;;;16.30;100.00
65190;BME280;51777;53.570;9.984;2023-05-12T06:04:11;101732.06;;;16.39;100.00
65190;BME280;51777;53.570;9.984;2023-05-12T06:06:36;101726.22;;;16.53;100.00
65190;BME280;51777;53.570;9.984;2023-05-12T06:09:02;101731.63;;;16.60;100.00
65190;BME280;51777;53.570;9.984;2023-05-12T06:11:27;101742.13;;;16.68;100.00
65190;BME280;51777;53.570;9.984;2023-05-12T06:13:52;101746.38;;;16.77;100.00
65190;BME280;51777;53.570;9.984;2023-05-12T06:16:18;101749.66;;;16.79;100.00
65190;BME280;51777;53.570;9.984;2023-05-12T06:18:43;101751.28;;;16.80;100.00
65190;BME280;51777;53.570;9.984;2023-05-12T06:21:08;101746.72;;;16.90;100.00
65190;BME280;51777;53.570;9.984;2023-05-12T06:23:34;101746.56;;;17.00;100.00
65190;BME280;51777;53.570;9.984;2023-05-12T06:25:59;101748.34;;;17.08;100.00
65190;BME280;51777;53.570;9.984;2023-05-12T06:28:25;101749.34;;;17.15;100.00
65190;BME280;51777;53.570;9.984;2023-05-12T06:30:50;101748.16;;;17.33;100.00
65190;BME280;51777;53.570;9.984;2023-05-12T06:33:15;101752.94;;;17.38;100.00
65190;BME280;51777;53.570;9.984;2023-05-12T06:35:41;101751.59;;;17.50;100.00
65190;BME280;51777;53.570;9.984;2023-05-12T06:38:06;101760.44;;;17.49;100.00
65190;BME280;51777;53.570;9.984;2023-05-12T06:40:32;101763.66;;;17.59;100.00
65190;BME280;51777;53.570;9.984;2023-05-12T06:42:57;101764.81;;;17.65;100.00
65190;BME280;51777;53.570;9.984;2023-05-12T06:45:22;101768.59;;;17.63;100.00
65190;BME280;51777;53.570;9.984;2023-05-12T06:47:48;101766.78;;;17.71;100.00
65190;BME280;51777;53.570;9.984;2023-05-12T06:50:14;101766.47;;;17.74;100.00
65190;BME280;51777;53.570;9.984;2023-05-12T06:52:44;101766.94;;;17.86;100.00
65190;BME280;51777;53.570;9.984;2023-05-12T06:55:10;101768.03;;;18.00;100.00
65190;BME280;51777;53.570;9.984;2023-05-12T06:57:36;101764.88;;;18.12;100.00
65190;BME280;51777;53.570;9.984;2023-05-12T07:00:02;101768.94;;;18.15;100.00
65190;BME280;51777;53.570;9.984;2023-05-12T07:02:28;101774.84;;;18.09;100.00
65190;BME280;51777;53.570;9.984;2023-05-12T07:04:53;101779.53;;;18.22;100.00
65190;BME280;51777;53.570;9.984;2023-05-12T07:07:19;101782.59;;;18.33;100.00
65190;BME280;51777;53.570;9.984;2023-05-12T07:09:44;101775.50;;;18.50;100.00
65190;BME280;51777;53.570;9.984;2023-05-12T07:12:10;101775.38;;;18.74;100.00
65190;BME280;51777;53.570;9.984;2023-05-12T07:14:35;101780.09;;;18.48;100.00
65190;BME280;51777;53.570;9.984;2023-05-12T07:17:01;101778.44;;;18.47;100.00
65190;BME280;51777;53.570;9.984;2023-05-12T07:19:27;101786.78;;;18.82;100.00
65190;BME280;51777;53.570;9.984;2023-05-12T07:21:52;101785.28;;;19.10;100.00
65190;BME280;51777;53.570;9.984;2023-05-12T07:24:18;101794.00;;;19.25;100.00
65190;BME280;51777;53.570;9.984;2023-05-12T07:26:43;101791.00;;;19.14;100.00
65190;BME280;51777;53.570;9.984;2023-05-12T07:29:09;101790.19;;;19.13;100.00
65190;BME280;51777;53.570;9.984;2023-05-12T07:31:35;101790.25;;;19.43;100.00
65190;BME280;51777;53.570;9.984;2023-05-12T07:34:01;101792.16;;;19.86;100.00
65190;BME280;51777;53.570;9.984;2023-05-12T07:36:26;101794.84;;;20.08;100.00
65190;BME280;51777;53.570;9.984;2023-05-12T07:38:52;101800.47;;;20.05;100.00
65190;BME280;51777;53.570;9.984;2023-05-12T07:41:18;101803.63;;;20.15;100.00
65190;BME280;51777;53.570;9.984;2023-05-12T07:43:44;101803.06;;;20.19;100.00
65190;BME280;51777;53.570;9.984;2023-05-12T07:46:09;101804.59;;;20.29;100.00
65190;BME280;51777;53.570;9.984;2023-05-12T07:48:35;101805.75;;;20.56;100.00
65190;BME280;51777;53.570;9.984;2023-05-12T07:51:04;101813.75;;;20.62;100.00
65190;BME280;51777;53.570;9.984;2023-05-12T07:53:29;101811.69;;;20.43;100.00
65190;BME280;51777;53.570;9.984;2023-05-12T07:55:55;101810.16;;;20.48;100.00
65190;BME280;51777;53.570;9.984;2023-05-12T07:58:20;101812.66;;;20.57;100.00
65190;BME280;51777;53.570;9.984;2023-05-12T08:00:45;101817.81;;;20.65;100.00
65190;BME280;51777;53.570;9.984;2023-05-12T08:03:11;101817.94;;;20.78;100.00
65190;BME280;51777;53.570;9.984;2023-05-12T08:05:37;101807.69;;;21.04;100.00
65190;BME280;51777;53.570;9.984;2023-05-12T08:08:03;101818.31;;;21.18;100.00
65190;BME280;51777;53.570;9.984;2023-05-12T08:10:28;101820.34;;;21.16;100.00
65190;BME280;51777;53.570;9.984;2023-05-12T08:12:54;101820.31;;;21.58;100.00
65190;BME280;51777;53.570;9.984;2023-05-12T08:15:20;101824.03;;;22.05;100.00
65190;BME280;51777;53.570;9.984;2023-05-12T08:17:46;101826.41;;;22.21;100.00
65190;BME280;51777;53.570;9.984;2023-05-12T08:20:11;101819.22;;;22.50;100.00
65190;BME280;51777;53.570;9.984;2023-05-12T08:22:36;101830.94;;;23.22;100.00
65190;BME280;51777;53.570;9.984;2023-05-12T08:25:03;101827.47;;;23.87;100.00
65190;BME280;51777;53.570;9.984;2023-05-12T08:27:29;101833.88;;;24.31;100.00
65190;BME280;51777;53.570;9.984;2023-05-12T08:29:54;101830.69;;;24.54;100.00
65190;BME280;51777;53.570;9.984;2023-05-12T08:32:19;101831.09;;;24.57;100.00
65190;BME280;51777;53.570;9.984;2023-05-12T08:34:45;101836.84;;;25.42;100.00
65190;BME280;51777;53.570;9.984;2023-05-12T08:37:10;101852.63;;;25.99;100.00
65190;BME280;51777;53.570;9.984;2023-05-12T08:39:36;101851.09;;;26.88;100.00
65190;BME280;51777;53.570;9.984;2023-05-12T08:44:34;101849.19;;;28.35;98.76
65190;BME280;51777;53.570;9.984;2023-05-12T08:47:02;101859.16;;;30.08;98.71
65190;BME280;51777;53.570;9.984;2023-05-12T08:49:30;101867.28;;;32.16;95.45
65190;BME280;51777;53.570;9.984;2023-05-12T08:51:56;101869.84;;;34.29;93.93
65190;BME280;51777;53.570;9.984;2023-05-12T08:54:26;101874.00;;;35.77;91.64
65190;BME280;51777;53.570;9.984;2023-05-12T08:56:51;101876.47;;;36.72;91.00
65190;BME280;51777;53.570;9.984;2023-05-12T08:59:18;101875.63;;;34.52;89.97
65190;BME280;51777;53.570;9.984;2023-05-12T09:01:44;101877.81;;;35.18;90.05
65190;BME280;51777;53.570;9.984;2023-05-12T09:04:11;101876.78;;;33.66;91.49
65190;BME280;51777;53.570;9.984;2023-05-12T09:06:40;101864.03;;;34.12;90.94
65190;BME280;51777;53.570;9.984;2023-05-12T09:09:06;101868.44;;;33.88;91.39
65190;BME280;51777;53.570;9.984;2023-05-12T09:11:32;101871.97;;;35.11;89.86
65190;BME280;51777;53.570;9.984;2023-05-12T09:14:04;101877.50;;;36.01;90.31
65190;BME280;51777;53.570;9.984;2023-05-12T09:16:36;101861.59;;;34.15;90.37
65190;BME280;51777;53.570;9.984;2023-05-12T09:19:03;101859.66;;;34.21;89.66
65190;BME280;51777;53.570;9.984;2023-05-12T09:21:29;101865.84;;;36.06;89.63
65190;BME280;51777;53.570;9.984;2023-05-12T09:23:58;101864.81;;;36.77;88.30
65190;BME280;51777;53.570;9.984;2023-05-12T09:26:26;101865.69;;;35.20;89.61
65190;BME280;51777;53.570;9.984;2023-05-12T09:28:53;101864.91;;;34.52;90.27
65190;BME280;51777;53.570;9.984;2023-05-12T09:31:21;101870.34;;;35.92;88.45
65190;BME280;51777;53.570;9.984;2023-05-12T09:33:48;101853.69;;;34.34;88.24
65190;BME280;51777;53.570;9.984;2023-05-12T09:36:21;101853.66;;;33.90;87.88
65190;BME280;51777;53.570;9.984;2023-05-12T09:39:05;101851.91;;;33.40;88.56
65190;BME280;51777;53.570;9.984;2023-05-12T09:41:41;101861.97;;;34.82;87.51
65190;BME280;51777;53.570;9.984;2023-05-12T09:44:13;101849.22;;;33.29;88.48
65190;BME280;51777;53.570;9.984;2023-05-12T09:46:40;101848.16;;;33.25;89.21
65190;BME280;51777;53.570;9.984;2023-05-12T09:49:06;101844.13;;;32.67;89.14
65190;BME280;51777;53.570;9.984;2023-05-12T09:51:32;101853.75;;;34.24;88.91
65190;BME280;51777;53.570;9.984;2023-05-12T09:53:57;101840.41;;;32.98;89.16
65190;BME280;51777;53.570;9.984;2023-05-12T09:56:26;101855.69;;;34.63;87.87
65190;BME280;51777;53.570;9.984;2023-05-12T09:58:52;101858.78;;;33.86;88.35
65190;BME280;51777;53.570;9.984;2023-05-12T10:01:19;101853.13;;;33.73;88.96
65190;BME280;51777;53.570;9.984;2023-05-12T10:03:53;101837.81;;;31.53;91.08
65190;BME280;51777;53.570;9.984;2023-05-12T10:06:29;101819.19;;;28.69;94.33
65190;BME280;51777;53.570;9.984;2023-05-12T10:11:21;101818.53;;;29.07;93.91
65190;BME280;51777;53.570;9.984;2023-05-12T10:13:47;101822.44;;;29.38;94.27
65190;BME280;51777;53.570;9.984;2023-05-12T10:16:12;101823.28;;;30.69;92.98
65190;BME280;51777;53.570;9.984;2023-05-12T10:18:39;101820.81;;;29.37;94.25
65190;BME280;51777;53.570;9.984;2023-05-12T10:21:07;101811.41;;;29.12;94.05
65190;BME280;51777;53.570;9.984;2023-05-12T10:23:34;101824.53;;;29.91;93.25
65190;BME280;51777;53.570;9.984;2023-05-12T10:26:01;101832.94;;;30.76;92.45
65190;BME280;51777;53.570;9.984;2023-05-12T10:28:28;101820.88;;;28.29;94.81
65190;BME280;51777;53.570;9.984;2023-05-12T10:30:55;101806.00;;;27.00;95.00
65190;BME280;51777;53.570;9.984;2023-05-12T10:33:21;101809.09;;;28.71;93.49
65190;BME280;51777;53.570;9.984;2023-05-12T10:35:47;101804.63;;;28.43;93.44
65190;BME280;51777;53.570;9.984;2023-05-12T10:38:14;101813.41;;;30.70;91.76
65190;BME280;51777;53.570;9.984;2023-05-12T10:40:54;101806.47;;;28.42;93.83
65190;BME280;51777;53.570;9.984;2023-05-12T10:43:24;101803.56;;;26.86;95.42
65190;BME280;51777;53.570;9.984;2023-05-12T10:46:16;101803.22;;;26.04;95.92
65190;BME280;51777;53.570;9.984;2023-05-12T10:51:19;101800.50;;;27.01;94.21
65190;BME280;51777;53.570;9.984;2023-05-12T10:53:50;101803.63;;;26.38;95.24
65190;BME280;51777;53.570;9.984;2023-05-12T10:56:21;101802.22;;;25.62;95.19
65190;BME280;51777;53.570;9.984;2023-05-12T10:59:10;101798.44;;;25.33;95.89
65190;BME280;51777;53.570;9.984;2023-05-12T11:01:42;101794.91;;;25.39;96.34
65190;BME280;51777;53.570;9.984;2023-05-12T11:04:17;101800.81;;;26.93;94.82
65190;BME280;51777;53.570;9.984;2023-05-12T11:06:56;101805.16;;;28.16;93.55
65190;BME280;51777;53.570;9.984;2023-05-12T11:09:23;101818.38;;;28.68;92.15
65190;BME280;51777;53.570;9.984;2023-05-12T11:11:52;101810.88;;;28.65;92.04
65190;BME280;51777;53.570;9.984;2023-05-12T11:14:19;101815.88;;;28.90;92.11
65190;BME280;51777;53.570;9.984;2023-05-12T11:16:44;101821.50;;;30.04;92.16
65190;BME280;51777;53.570;9.984;2023-05-12T11:19:10;101820.63;;;31.02;91.75
65190;BME280;51777;53.570;9.984;2023-05-12T11:21:35;101825.56;;;30.61;91.94
65190;BME280;51777;53.570;9.984;2023-05-12T11:24:04;101811.38;;;30.28;91.15
65190;BME280;51777;53.570;9.984;2023-05-12T11:26:30;101820.88;;;31.37;91.14
65190;BME280;51777;53.570;9.984;2023-05-12T11:28:56;101825.22;;;31.11;90.65
65190;BME280;51777;53.570;9.984;2023-05-12T11:31:22;101815.97;;;29.67;91.78
65190;BME280;51777;53.570;9.984;2023-05-12T11:33:48;101817.78;;;29.28;91.37
65190;BME280;51777;53.570;9.984;2023-05-12T11:36:15;101816.38;;;28.30;93.04
65190;BME280;51777;53.570;9.984;2023-05-12T11:38:49;101810.66;;;27.86;94.08
65190;BME280;51777;53.570;9.984;2023-05-12T11:41:23;101823.47;;;29.70;91.21
65190;BME280;51777;53.570;9.984;2023-05-12T11:43:52;101823.44;;;29.48;90.89
65190;BME280;51777;53.570;9.984;2023-05-12T11:46:25;101830.25;;;29.61;90.65
65190;BME280;51777;53.570;9.984;2023-05-12T11:48:58;101826.00;;;29.60;91.32
65190;BME280;51777;53.570;9.984;2023-05-12T11:51:25;101826.88;;;30.85;91.30
65190;BME280;51777;53.570;9.984;2023-05-12T11:53:54;101830.31;;;32.02;90.25
65190;BME280;51777;53.570;9.984;2023-05-12T11:56:20;101839.22;;;31.66;90.52
65190;BME280;51777;53.570;9.984;2023-05-12T11:58:55;101841.47;;;31.84;90.02
65190;BME280;51777;53.570;9.984;2023-05-12T12:01:22;101828.91;;;30.46;91.48
65190;BME280;51777;53.570;9.984;2023-05-12T12:03:49;101834.59;;;31.14;90.84
65190;BME280;51777;53.570;9.984;2023-05-12T12:06:16;101831.31;;;30.21;90.75
65190;BME280;51777;53.570;9.984;2023-05-12T12:08:51;101829.88;;;30.13;90.67
65190;BME280;51777;53.570;9.984;2023-05-12T12:11:18;101835.78;;;30.15;90.18
65190;BME280;51777;53.570;9.984;2023-05-12T12:13:50;101831.06;;;30.22;90.63
65190;BME280;51777;53.570;9.984;2023-05-12T12:16:26;101834.28;;;30.24;90.96
65190;BME280;51777;53.570;9.984;2023-05-12T12:18:52;101830.28;;;31.92;89.48
65190;BME280;51777;53.570;9.984;2023-05-12T12:21:18;101834.59;;;32.08;89.01
65190;BME280;51777;53.570;9.984;2023-05-12T12:23:44;101837.72;;;32.63;88.52
65190;BME280;51777;53.570;9.984;2023-05-12T12:26:09;101837.63;;;32.27;88.32
65190;BME280;51777;53.570;9.984;2023-05-12T12:28:35;101830.06;;;32.09;87.98
65190;BME280;51777;53.570;9.984;2023-05-12T12:31:01;101838.38;;;31.18;89.71
65190;BME280;51777;53.570;9.984;2023-05-12T12:33:26;101826.69;;;29.94;90.61
65190;BME280;51777;53.570;9.984;2023-05-12T12:35:52;101825.88;;;29.16;91.06
65190;BME280;51777;53.570;9.984;2023-05-12T12:38:18;101831.03;;;30.71;90.31
65190;BME280;51777;53.570;9.984;2023-05-12T12:40:43;101836.16;;;31.89;89.38
65190;BME280;51777;53.570;9.984;2023-05-12T12:43:09;101833.31;;;30.35;88.83
65190;BME280;51777;53.570;9.984;2023-05-12T12:45:35;101825.34;;;30.14;89.52
65190;BME280;51777;53.570;9.984;2023-05-12T12:48:00;101823.56;;;30.46;89.78
65190;BME280;51777;53.570;9.984;2023-05-12T12:50:26;101826.16;;;31.27;89.01